Highlands Peak, California Weather observations

Data are for observation ending at time listed.
 Day   Time    Ave.   Ave.  Ave.  Vector   Max.   Stn.    Total    Solar   Ave.  
  of    of     Air    Rel.  Wind   Wind    Wind   Baro.  Precip.   Rad.    Soil  
Year   Day     Temp.  Hum.  Speed  Dir.    Gust   Pres.                    Temp. 
2016   (PST)    F      %     mph   deg.    mph     mb.     in.     W/m2     F   
------------------------------------------------------------------------------
  37   15:50   67.1    20    2.9   251      6.0   938.2    0.00     342    57.5
  37   16:00   66.8    18    2.2   279      5.9   938.2    0.00     300    57.7
  37   16:10   67.6    17    2.2   341      9.2   938.2    0.00     275    57.9
  37   16:20   66.9    15    5.2     6     14.5   938.1    0.00     248    58.1
  37   16:30   66.5    16    4.9   303     15.1   938.0    0.00     180    58.3
  37   16:40   66.2    14    5.0   332     15.3   937.9    0.00     174    58.4
  37   16:50   66.0    13    6.3   357     17.3   937.8    0.00     144    58.6
  37   17:00   66.1    14    4.0   241     10.3   937.9    0.00     118    58.6
  37   17:10   65.8    12    4.4    62     10.8   937.8    0.00      93    58.6
  37   17:20   64.8    12    8.5    78     17.1   937.7    0.00      67    58.5
  37   17:30   64.2    14    5.9    93     12.3   937.7    0.00      43    58.5
  37   17:40   64.1    11    6.5    75     12.7   937.6    0.00      25    58.4
  37   17:50   63.6    13    4.3   117     11.4   937.7    0.00      10    58.3
  37   18:00   63.2    12    4.7    82     11.5   937.6    0.00       2    58.2
  37   18:10   63.4    13    3.0   160      7.8   937.6    0.00       0    58.1
  37   18:20   63.6    12    5.3   100     18.9   937.6    0.00       0    58.0
  37   18:30   63.9    12    5.1    54     12.6   937.7    0.00       0    57.9
  37   18:40   63.8    11    3.4   115      7.1   937.8    0.00       0    57.8
  37   18:50   63.3    10    5.0    62     13.9   937.7    0.00       0    57.6
  37   19:00   63.6     9   10.3    37     19.2   937.7    0.00       0    57.4
  37   19:10   63.7    10   10.3    52     22.5   937.6    0.00       0    57.2
  37   19:20   63.6     9   10.3    23     21.0   937.6    0.00       0    56.9
  37   19:30   63.8    10    9.9    22     20.4   937.6    0.00       0    56.7
  37   19:40   64.0    13   13.7    38     24.4   937.8    0.00       0    56.4
  37   19:50   64.5    17   15.2    43     27.6   937.9    0.00       0    56.1
  37   20:00   64.6    19   11.2    49     19.4   938.1    0.00       0    56.0
  37   20:10   64.2    20    8.1    29     21.3   938.2    0.00       0    55.9
  37   20:20   63.5    22    9.4    43     19.3   938.2    0.00       0    55.8
  37   20:30   63.7    23    8.7    38     17.8   938.2    0.00       0    55.7
  37   20:40   63.6    24    9.8    25     22.1   938.2    0.00       0    55.5
  37   20:50   63.3    26    8.6    18     18.6   938.4    0.00       0    55.4
  37   21:00   62.8    27    6.9    35     15.2   938.4    0.00       0    55.4
  37   21:10   62.7    28    3.8    21     10.7   938.3    0.00       0    55.3
  37   21:20   62.2    25    4.1   314     10.2   938.5    0.00       0    55.3
  37   21:30   61.6    18    3.1   302      6.4   938.5    0.00       0    55.3
  37   21:40   61.2    17    2.3   241      5.4   938.6    0.00       0    55.2
  37   21:50   61.4    22    2.5   236      4.5   938.6    0.00       0    55.1
  37   22:00   62.2    25    1.9   310      4.7   938.5    0.00       0    55.1
  37   22:10   62.0    23    2.8   240      5.7   938.4    0.00       0    55.0
  37   22:20   61.3    20    1.6   254      2.8   938.4    0.00       0    55.0
  37   22:30   61.5    23    2.5   271      3.9   938.5    0.00       0    54.8
  37   22:40   61.4    23    1.2   285      2.8   938.5    0.00       0    54.7
  37   22:50   61.2    26    3.4   328      8.9   938.5    0.00       0    54.7
  37   23:00   61.4    28    3.0    18      6.1   938.5    0.00       0    54.6
  37   23:10   61.8    30    3.3    51      7.1   938.5    0.00       0    54.5
  37   23:20   61.1    28    1.6   332      4.4   938.4    0.00       0    54.4
  37   23:30   60.7    29    1.9   309      4.3   938.3    0.00       0    54.3
  37   23:40   60.5    27    2.7   296      4.4   938.2    0.00       0    54.2
  37   23:50   60.3    27    2.1   286      3.7   938.1    0.00       0    54.1
  38    0:00   61.6    29    2.6    18      7.7   938.1    0.00       0    54.0
  38    0:10   63.0    29    3.5   327      8.6   937.9    0.00       0    53.9
  38    0:20   60.5    26    3.9   253      6.1   937.8    0.00       0    53.8
  38    0:30   59.6    28    3.1   215      5.3   937.8    0.00       0    53.8
  38    0:40   59.9    28    5.1   164     10.7   937.7    0.00       0    53.7
  38    0:50   59.3    26    5.2   186      9.6   937.7    0.00       0    53.6
  38    1:00   58.8    26    6.8   174      9.1   937.7    0.00       0    53.5
  38    1:10   58.3    25    4.3   169      9.1   937.7    0.00       0    53.4
  38    1:20   60.4    27    4.9   322     10.6   937.6    0.00       0    53.3
  38    1:30   61.1    27    7.7   107     23.7   937.5    0.00       0    53.2
  38    1:40   61.5    27    3.1   161      7.8   937.6    0.00       0    53.1
  38    1:50   61.0    27    3.3   206      7.8   937.6    0.00       0    53.1
  38    2:00   60.5    27    2.8    36      7.0   937.5    0.00       0    53.0
  38    2:10   60.7    26    6.1   124     10.6   937.4    0.00       0    52.9
  38    2:20   58.3    26    5.8   174      9.9   937.4    0.00       0    52.8
  38    2:30   56.9    27    5.1   155      8.3   937.4    0.00       0    52.8
  38    2:40   56.4    26    7.7   162     10.0   937.3    0.00       0    52.7
  38    2:50   56.5    26    4.5   170      8.0   937.3    0.00       0    52.6
  38    3:00   56.8    26    4.8   146     10.9   937.2    0.00       0    52.5
  38    3:10   58.0    27    8.2   124     14.8   937.1    0.00       0    52.4
  38    3:20   57.6    26    6.7   140     11.5   937.0    0.00       0    52.3
  38    3:30   58.6    28    8.4   122     16.4   936.9    0.00       0    52.2
  38    3:40   60.9    28    9.1    96     16.9   936.9    0.00       0    52.1
  38    3:50   61.1    27    4.1    58      9.4   937.0    0.00       0    52.1
  38    4:00   60.3    28    4.7    79     10.2   936.9    0.00       0    52.0
  38    4:10   60.7    28    4.7    87     11.2   936.8    0.00       0    52.0
  38    4:20   61.2    26    1.4   112      3.9   936.9    0.00       0    51.9
  38    4:30   60.9    26    1.4     9      3.2   936.9    0.00       0    51.9
  38    4:40   61.0    26    3.2   316      4.9   936.8    0.00       0    51.8
  38    4:50   60.3    26    1.8   268      3.9   936.7    0.00       0    51.8
  38    5:00   60.0    27    3.0   212      5.5   936.6    0.00       0    51.7
  38    5:10   59.9    26    4.4   252      6.9   936.6    0.00       0    51.6
  38    5:20   59.5    26    1.7   220      4.2   936.6    0.00       0    51.6
  38    5:30   60.1    26    2.7   186      4.4   936.5    0.00       0    51.5
  38    5:40   59.4    27    3.4   145      5.9   936.4    0.00       0    51.5
  38    5:50   59.7    27    3.5   160      4.8   936.3    0.00       0    51.4
  38    6:00   59.7    27    2.9   146      5.3   936.3    0.00       0    51.4
  38    6:10   59.6    27    3.2   162      5.5   936.4    0.00       0    51.3
  38    6:20   59.9    27    2.3   174      4.4   936.4    0.00       0    51.2
  38    6:30   59.7    27    2.0   229      5.0   936.5    0.00       0    51.2
  38    6:40   59.0    28    3.3    69      6.6   936.5    0.00       0    51.1
  38    6:50   59.0    28    5.1   100      7.7   936.5    0.00       1    51.1
  38    7:00   59.2    28    5.9   136     13.5   936.4    0.00       2    51.0
  38    7:10   58.9    28    3.8   293      8.0   936.5    0.00       6    50.9
  38    7:20   59.8    27    1.5    74      4.7   936.6    0.00       9    50.9
  38    7:30   59.6    27    3.8    93      9.3   936.6    0.00      12    50.8
  38    7:40   60.0    27    2.8    83      6.6   936.6    0.00      24    50.8
  38    7:50   61.2    26    4.8   103      7.0   936.6    0.00     138    50.7
  38    8:00   63.2    25    3.3   127      5.0   936.6    0.00     172    50.6
  38    8:10   64.0    24    2.1    52      4.7   936.7    0.00     206    50.5
  38    8:20   64.5    25    3.4    95      5.6   936.8    0.00     241    50.5
  38    8:30   65.5    24    2.9   104      4.2   936.9    0.00     276    50.5
  38    8:40   65.9    24    2.7   113      4.3   936.9    0.00     311    50.5
  38    8:50   66.3    25    3.2   127      5.1   936.9    0.00     344    50.4
  38    9:00   66.7    23    3.4   164      8.2   936.9    0.00     377    50.5
  38    9:10   66.6    23    5.8   165      8.8   936.9    0.00     408    50.5
  38    9:20   66.7    24    5.1   173      7.5   936.9    0.00     439    50.6
  38    9:30   67.3    24    3.5   167      6.0   937.0    0.00     468    50.6
  38    9:40   67.5    24    1.8   158      5.3   937.0    0.00     496    50.7
  38    9:50   67.6    23    1.6   208      3.4   937.1    0.00     523    50.8
  38   10:00   67.1    25    0.5   214      1.7   937.0    0.00     548    50.9
  38   10:10   66.8    26    1.1   276      2.1   937.0    0.00     572    51.0
  38   10:20   66.5    27    1.5   244      3.4   936.9    0.00     594    51.2
  38   10:30   67.0    28    1.9   251      4.5   936.9    0.00     614    51.4
  38   10:40   66.3    29    1.6   238      3.3   936.9    0.00     632    51.6
  38   10:50   69.1    29    1.4   139      3.4   936.9    0.00     648    51.8
  38   11:00   69.0    28    1.9   263      3.7   936.9    0.00     663    52.0
  38   11:10   67.0    30    2.8   267      3.9   936.9    0.00     676    52.3
  38   11:20   67.5    28    3.0   258      4.1   936.9    0.00     687    52.6
  38   11:30   68.7    28    3.1   233      5.1   936.8    0.00     697    52.9
  38   11:40   69.4    28    3.2   228      6.5   936.7    0.00     706    53.2
  38   11:50   70.9    25    2.9   182      6.9   936.6    0.00     712    53.5
  38   12:00   72.1    22    3.2   190      6.6   936.4    0.00     717    53.8
  38   12:10   70.8    25    3.1   204      5.5   936.3    0.00     719    54.1
  38   12:20   71.2    23    3.9   179      7.0   936.2    0.00     720    54.4
  38   12:30   71.4    21    3.8   186      6.8   936.1    0.00     718    54.8
  38   12:40   71.2    22    3.4   244      6.1   935.9    0.00     715    55.1
  38   12:50   69.8    27    4.0   257      7.4   935.8    0.00     708    55.4
  38   13:00   69.7    28    3.3   212      5.5   935.7    0.00     702    55.7
  38   13:10   70.3    27    2.8   226      6.1   935.6    0.00     695    56.0
  38   13:20   70.8    25    1.5   199      4.7   935.6    0.00     686    56.4
  38   13:30   71.8    23    1.8   268      3.8   935.5    0.00     672    56.7
  38   13:40   72.0    22    1.3   323      4.2   935.4    0.00     655    57.0
  38   13:50   72.4    20    4.9    60     12.6   935.4    0.00     639    57.5
  38   14:00   73.2    22    2.9   248      5.6   935.2    0.00     622    57.8
  38   14:10   73.1    22    3.1   216      7.3   935.2    0.00     604    58.2
  38   14:20   74.1    23    3.0   235      7.9   935.2    0.00     584    58.5
  38   14:30   73.1    22    5.6   265      9.0   935.1    0.00     562    58.8
  38   14:40   72.6    22    2.7   236      6.4   935.0    0.00     538    59.2
  38   14:50   73.6    22    3.1   256      6.1   935.0    0.00     512    59.5
  38   15:00   73.2    20    2.9    29      6.3   935.0    0.00     489    59.8
  38   15:10   73.8    20    2.6   237      7.0   935.0    0.00     461    60.1
  38   15:20   70.8    23    4.4   262      7.8   935.0    0.00     433    60.5
  38   15:30   70.8    23    4.7   267      7.2   935.0    0.00     392    60.7
  38   15:40   71.1    23    3.3   269      6.2   934.9    0.00     372    60.8

Return to Highlands Peak graphs page.


Western Regional Climate Center,wrcc@dri.edu